sensor_id;sensor_type;location;lat;lon;timestamp;pressure;altitude;pressure_sealevel;temperature;humidity
49311;BME280;35177;45.900;5.946;2023-07-16T00:01:19;97730.84;;;20.78;56.87
49311;BME280;35177;45.900;5.946;2023-07-16T00:03:44;97728.47;;;20.67;57.16
49311;BME280;35177;45.900;5.946;2023-07-16T00:06:10;97723.94;;;20.75;57.09
49311;BME280;35177;45.900;5.946;2023-07-16T00:08:35;97705.22;;;20.58;57.80
49311;BME280;35177;45.900;5.946;2023-07-16T00:11:03;97699.31;;;20.54;58.70
49311;BME280;35177;45.900;5.946;2023-07-16T00:13:28;97690.88;;;20.49;57.75
49311;BME280;35177;45.900;5.946;2023-07-16T00:15:54;97650.72;;;20.48;58.31
49311;BME280;35177;45.900;5.946;2023-07-16T00:18:20;97651.88;;;20.45;57.91
49311;BME280;35177;45.900;5.946;2023-07-16T00:20:45;97674.59;;;20.51;59.15
49311;BME280;35177;45.900;5.946;2023-07-16T00:23:11;97690.56;;;20.52;58.45
49311;BME280;35177;45.900;5.946;2023-07-16T00:25:36;97697.41;;;20.47;58.99
49311;BME280;35177;45.900;5.946;2023-07-16T00:28:02;97709.34;;;20.44;59.82
49311;BME280;35177;45.900;5.946;2023-07-16T00:30:28;97712.91;;;20.53;60.99
49311;BME280;35177;45.900;5.946;2023-07-16T00:32:53;97722.06;;;20.34;61.02
49311;BME280;35177;45.900;5.946;2023-07-16T00:35:18;97722.00;;;20.26;60.88
49311;BME280;35177;45.900;5.946;2023-07-16T00:37:44;97720.84;;;20.29;60.47
49311;BME280;35177;45.900;5.946;2023-07-16T00:40:10;97726.66;;;20.42;60.31
49311;BME280;35177;45.900;5.946;2023-07-16T00:42:36;97738.97;;;20.27;61.21
49311;BME280;35177;45.900;5.946;2023-07-16T00:45:01;97741.88;;;20.33;60.88
49311;BME280;35177;45.900;5.946;2023-07-16T00:47:27;97742.78;;;20.42;60.72
49311;BME280;35177;45.900;5.946;2023-07-16T00:49:53;97738.34;;;20.33;61.67
49311;BME280;35177;45.900;5.946;2023-07-16T00:52:19;97738.47;;;20.23;62.57
49311;BME280;35177;45.900;5.946;2023-07-16T00:54:46;97737.31;;;20.26;61.74
49311;BME280;35177;45.900;5.946;2023-07-16T00:57:11;97738.78;;;20.28;61.66
49311;BME280;35177;45.900;5.946;2023-07-16T00:59:37;97736.22;;;20.19;61.82
49311;BME280;35177;45.900;5.946;2023-07-16T01:02:02;97731.22;;;20.24;60.58
49311;BME280;35177;45.900;5.946;2023-07-16T01:04:28;97731.06;;;20.25;61.58
49311;BME280;35177;45.900;5.946;2023-07-16T01:06:56;97728.69;;;20.22;59.91
49311;BME280;35177;45.900;5.946;2023-07-16T01:09:24;97734.44;;;20.27;60.49
49311;BME280;35177;45.900;5.946;2023-07-16T01:11:51;97732.97;;;20.33;59.87
49311;BME280;35177;45.900;5.946;2023-07-16T01:14:18;97724.19;;;20.31;59.70
49311;BME280;35177;45.900;5.946;2023-07-16T01:16:44;97725.53;;;20.27;60.36
49311;BME280;35177;45.900;5.946;2023-07-16T01:19:10;97727.13;;;20.20;59.80
49311;BME280;35177;45.900;5.946;2023-07-16T01:30:10;97734.41;;;20.01;61.80
49311;BME280;35177;45.900;5.946;2023-07-16T01:32:37;97729.53;;;20.05;61.48
49311;BME280;35177;45.900;5.946;2023-07-16T01:35:04;97739.50;;;20.13;61.61
49311;BME280;35177;45.900;5.946;2023-07-16T01:37:31;97745.56;;;20.15;61.57
49311;BME280;35177;45.900;5.946;2023-07-16T01:39:57;97746.59;;;20.14;60.39
49311;BME280;35177;45.900;5.946;2023-07-16T01:42:23;97741.47;;;20.02;62.09
49311;BME280;35177;45.900;5.946;2023-07-16T01:44:48;97733.72;;;19.99;60.70
49311;BME280;35177;45.900;5.946;2023-07-16T01:50:18;97733.22;;;20.22;58.80
49311;BME280;35177;45.900;5.946;2023-07-16T01:52:43;97731.66;;;20.19;58.47
49311;BME280;35177;45.900;5.946;2023-07-16T01:55:09;97732.22;;;20.23;58.42
49311;BME280;35177;45.900;5.946;2023-07-16T01:57:34;97743.25;;;20.20;58.35
49311;BME280;35177;45.900;5.946;2023-07-16T01:59:59;97749.56;;;20.10;59.52
49311;BME280;35177;45.900;5.946;2023-07-16T02:02:25;97750.41;;;20.11;60.22
49311;BME280;35177;45.900;5.946;2023-07-16T02:04:50;97750.94;;;19.71;62.60
49311;BME280;35177;45.900;5.946;2023-07-16T02:07:16;97746.88;;;19.67;62.36
49311;BME280;35177;45.900;5.946;2023-07-16T02:09:41;97747.00;;;19.83;60.85
49311;BME280;35177;45.900;5.946;2023-07-16T02:12:07;97746.75;;;19.94;60.13
49311;BME280;35177;45.900;5.946;2023-07-16T02:14:32;97741.22;;;20.14;60.97
49311;BME280;35177;45.900;5.946;2023-07-16T02:16:58;97738.53;;;20.14;61.01
49311;BME280;35177;45.900;5.946;2023-07-16T02:19:23;97738.44;;;20.05;62.70
49311;BME280;35177;45.900;5.946;2023-07-16T02:21:50;97733.03;;;19.97;60.78
49311;BME280;35177;45.900;5.946;2023-07-16T02:24:16;97729.78;;;19.94;60.74
49311;BME280;35177;45.900;5.946;2023-07-16T02:26:41;97747.44;;;19.96;63.52
49311;BME280;35177;45.900;5.946;2023-07-16T02:29:07;97744.06;;;19.94;60.67
49311;BME280;35177;45.900;5.946;2023-07-16T02:31:34;97741.59;;;20.19;55.36
49311;BME280;35177;45.900;5.946;2023-07-16T02:34:00;97739.88;;;20.18;54.53
49311;BME280;35177;45.900;5.946;2023-07-16T02:36:25;97748.72;;;20.28;53.83
49311;BME280;35177;45.900;5.946;2023-07-16T02:38:51;97754.09;;;20.28;54.27
49311;BME280;35177;45.900;5.946;2023-07-16T02:41:16;97760.16;;;20.30;55.69
49311;BME280;35177;45.900;5.946;2023-07-16T02:43:41;97755.78;;;20.11;58.89
49311;BME280;35177;45.900;5.946;2023-07-16T02:46:07;97758.63;;;20.09;55.88
49311;BME280;35177;45.900;5.946;2023-07-16T02:48:32;97748.06;;;20.26;53.92
49311;BME280;35177;45.900;5.946;2023-07-16T02:50:58;97761.84;;;20.31;55.84
49311;BME280;35177;45.900;5.946;2023-07-16T02:53:23;97750.94;;;20.15;58.09
49311;BME280;35177;45.900;5.946;2023-07-16T02:55:49;97750.91;;;20.06;58.24
49311;BME280;35177;45.900;5.946;2023-07-16T02:58:14;97740.88;;;20.17;56.22
49311;BME280;35177;45.900;5.946;2023-07-16T03:00:40;97747.78;;;20.19;55.25
49311;BME280;35177;45.900;5.946;2023-07-16T03:03:05;97751.72;;;20.25;54.31
49311;BME280;35177;45.900;5.946;2023-07-16T03:05:31;97752.22;;;20.28;54.41
49311;BME280;35177;45.900;5.946;2023-07-16T03:07:56;97744.94;;;20.21;54.89
49311;BME280;35177;45.900;5.946;2023-07-16T03:10:22;97736.34;;;20.17;55.85
49311;BME280;35177;45.900;5.946;2023-07-16T03:12:48;97736.88;;;20.21;54.71
49311;BME280;35177;45.900;5.946;2023-07-16T03:15:13;97735.16;;;20.12;56.75
49311;BME280;35177;45.900;5.946;2023-07-16T03:17:39;97725.97;;;19.96;57.57
49311;BME280;35177;45.900;5.946;2023-07-16T03:20:05;97725.75;;;19.90;58.31
49311;BME280;35177;45.900;5.946;2023-07-16T03:22:31;97735.63;;;19.89;58.57
49311;BME280;35177;45.900;5.946;2023-07-16T03:24:57;97730.91;;;19.83;58.96
49311;BME280;35177;45.900;5.946;2023-07-16T03:27:22;97722.22;;;19.89;61.57
49311;BME280;35177;45.900;5.946;2023-07-16T03:29:48;97723.31;;;19.79;62.93
49311;BME280;35177;45.900;5.946;2023-07-16T03:32:13;97721.19;;;19.65;62.83
49311;BME280;35177;45.900;5.946;2023-07-16T03:34:39;97719.09;;;19.76;65.33
49311;BME280;35177;45.900;5.946;2023-07-16T03:37:05;97720.84;;;19.68;63.39
49311;BME280;35177;45.900;5.946;2023-07-16T03:39:30;97714.25;;;19.80;61.76
49311;BME280;35177;45.900;5.946;2023-07-16T03:41:56;97703.72;;;19.86;61.16
49311;BME280;35177;45.900;5.946;2023-07-16T03:44:21;97703.66;;;19.78;62.78
49311;BME280;35177;45.900;5.946;2023-07-16T03:46:46;97713.16;;;20.34;61.49
49311;BME280;35177;45.900;5.946;2023-07-16T03:49:12;97702.38;;;20.26;62.15
49311;BME280;35177;45.900;5.946;2023-07-16T03:51:37;97711.22;;;20.52;60.38
49311;BME280;35177;45.900;5.946;2023-07-16T03:54:03;97716.38;;;20.71;57.25
49311;BME280;35177;45.900;5.946;2023-07-16T03:56:28;97710.06;;;20.54;60.35
49311;BME280;35177;45.900;5.946;2023-07-16T03:58:54;97704.91;;;20.35;57.63
49311;BME280;35177;45.900;5.946;2023-07-16T04:01:19;97704.94;;;20.18;59.52
49311;BME280;35177;45.900;5.946;2023-07-16T04:03:45;97698.59;;;20.44;60.58
49311;BME280;35177;45.900;5.946;2023-07-16T04:06:10;97706.34;;;20.81;60.79
49311;BME280;35177;45.900;5.946;2023-07-16T04:08:36;97715.50;;;20.70;60.71
49311;BME280;35177;45.900;5.946;2023-07-16T04:11:05;97729.03;;;20.87;59.72
49311;BME280;35177;45.900;5.946;2023-07-16T04:13:31;97726.94;;;20.64;60.54
49311;BME280;35177;45.900;5.946;2023-07-16T04:15:57;97736.78;;;20.90;58.61
49311;BME280;35177;45.900;5.946;2023-07-16T04:18:23;97736.66;;;20.32;58.05
49311;BME280;35177;45.900;5.946;2023-07-16T04:20:49;97747.97;;;20.69;60.16
49311;BME280;35177;45.900;5.946;2023-07-16T04:23:14;97775.63;;;20.87;58.80
49311;BME280;35177;45.900;5.946;2023-07-16T04:25:40;97798.69;;;20.21;58.68
49311;BME280;35177;45.900;5.946;2023-07-16T04:28:05;97785.75;;;19.81;63.28
49311;BME280;35177;45.900;5.946;2023-07-16T04:30:31;97736.16;;;19.22;68.03
49311;BME280;35177;45.900;5.946;2023-07-16T04:32:57;97699.09;;;18.91;70.22
49311;BME280;35177;45.900;5.946;2023-07-16T04:35:22;97725.44;;;18.68;71.49
49311;BME280;35177;45.900;5.946;2023-07-16T04:37:48;97741.41;;;18.23;76.70
49311;BME280;35177;45.900;5.946;2023-07-16T04:40:13;97731.88;;;17.92;79.52
49311;BME280;35177;45.900;5.946;2023-07-16T04:42:38;97746.28;;;17.72;81.56
49311;BME280;35177;45.900;5.946;2023-07-16T04:45:05;97767.94;;;17.59;83.26
49311;BME280;35177;45.900;5.946;2023-07-16T04:47:31;97772.13;;;18.19;81.42
49311;BME280;35177;45.900;5.946;2023-07-16T04:49:59;97776.25;;;18.04;79.52
49311;BME280;35177;45.900;5.946;2023-07-16T04:52:25;97771.81;;;18.51;78.54
49311;BME280;35177;45.900;5.946;2023-07-16T04:54:50;97765.06;;;18.47;78.92
49311;BME280;35177;45.900;5.946;2023-07-16T04:57:16;97764.66;;;18.13;80.18
49311;BME280;35177;45.900;5.946;2023-07-16T04:59:41;97766.81;;;18.00;80.87
49311;BME280;35177;45.900;5.946;2023-07-16T05:02:07;97768.75;;;18.17;80.76
49311;BME280;35177;45.900;5.946;2023-07-16T05:04:36;97764.56;;;17.95;81.25
49311;BME280;35177;45.900;5.946;2023-07-16T05:07:02;97778.78;;;17.96;80.69
49311;BME280;35177;45.900;5.946;2023-07-16T05:09:27;97779.34;;;17.99;80.79
49311;BME280;35177;45.900;5.946;2023-07-16T05:11:53;97764.09;;;18.65;76.82
49311;BME280;35177;45.900;5.946;2023-07-16T05:14:18;97759.69;;;18.47;78.38
49311;BME280;35177;45.900;5.946;2023-07-16T05:16:44;97760.75;;;19.18;74.63
49311;BME280;35177;45.900;5.946;2023-07-16T05:19:10;97765.94;;;19.02;75.13
49311;BME280;35177;45.900;5.946;2023-07-16T05:21:35;97771.78;;;19.15;74.40
49311;BME280;35177;45.900;5.946;2023-07-16T05:24:00;97770.63;;;19.45;72.94
49311;BME280;35177;45.900;5.946;2023-07-16T05:26:26;97764.06;;;18.75;78.80
49311;BME280;35177;45.900;5.946;2023-07-16T05:28:51;97772.31;;;18.91;77.30
49311;BME280;35177;45.900;5.946;2023-07-16T05:31:17;97768.69;;;19.10;78.45
49311;BME280;35177;45.900;5.946;2023-07-16T05:33:42;97776.00;;;18.63;82.04
49311;BME280;35177;45.900;5.946;2023-07-16T05:36:08;97772.06;;;18.57;81.51
49311;BME280;35177;45.900;5.946;2023-07-16T05:38:33;97774.25;;;18.71;80.85
49311;BME280;35177;45.900;5.946;2023-07-16T05:41:03;97774.06;;;19.10;76.24
49311;BME280;35177;45.900;5.946;2023-07-16T05:43:29;97773.94;;;19.56;75.48
49311;BME280;35177;45.900;5.946;2023-07-16T05:45:54;97777.47;;;19.39;76.99
49311;BME280;35177;45.900;5.946;2023-07-16T05:48:20;97781.03;;;19.30;77.47
49311;BME280;35177;45.900;5.946;2023-07-16T05:50:46;97774.44;;;18.60;79.77
49311;BME280;35177;45.900;5.946;2023-07-16T05:53:11;97776.03;;;18.53;78.72
49311;BME280;35177;45.900;5.946;2023-07-16T05:55:39;97781.03;;;18.66;79.06
49311;BME280;35177;45.900;5.946;2023-07-16T05:58:05;97774.44;;;18.97;76.49
49311;BME280;35177;45.900;5.946;2023-07-16T06:00:30;97772.72;;;18.96;79.48
49311;BME280;35177;45.900;5.946;2023-07-16T06:02:56;97778.97;;;18.87;81.12
49311;BME280;35177;45.900;5.946;2023-07-16T06:05:21;97781.47;;;19.53;76.59
49311;BME280;35177;45.900;5.946;2023-07-16T06:07:47;97778.47;;;19.73;76.04
49311;BME280;35177;45.900;5.946;2023-07-16T06:10:12;97768.56;;;19.91;75.57
49311;BME280;35177;45.900;5.946;2023-07-16T06:12:38;97773.78;;;19.58;77.29
49311;BME280;35177;45.900;5.946;2023-07-16T06:15:04;97776.16;;;19.43;77.03
49311;BME280;35177;45.900;5.946;2023-07-16T06:17:29;97771.78;;;19.15;77.89
49311;BME280;35177;45.900;5.946;2023-07-16T06:19:55;97784.22;;;19.16;78.98
49311;BME280;35177;45.900;5.946;2023-07-16T06:22:20;97776.81;;;19.00;79.93
49311;BME280;35177;45.900;5.946;2023-07-16T06:24:46;97779.84;;;19.77;75.43
49311;BME280;35177;45.900;5.946;2023-07-16T06:27:11;97775.38;;;20.47;72.53
49311;BME280;35177;45.900;5.946;2023-07-16T06:29:36;97781.13;;;20.08;74.56
49311;BME280;35177;45.900;5.946;2023-07-16T06:32:02;97780.38;;;19.63;78.20
49311;BME280;35177;45.900;5.946;2023-07-16T06:34:28;97777.97;;;20.31;75.85
49311;BME280;35177;45.900;5.946;2023-07-16T06:36:53;97783.91;;;19.46;79.66
49311;BME280;35177;45.900;5.946;2023-07-16T06:39:19;97785.44;;;19.66;77.14
49311;BME280;35177;45.900;5.946;2023-07-16T06:41:45;97783.91;;;19.99;76.58
49311;BME280;35177;45.900;5.946;2023-07-16T06:44:12;97785.38;;;19.58;78.03
49311;BME280;35177;45.900;5.946;2023-07-16T06:46:39;97787.75;;;19.96;78.00
49311;BME280;35177;45.900;5.946;2023-07-16T06:49:05;97786.63;;;19.81;79.10
49311;BME280;35177;45.900;5.946;2023-07-16T06:51:32;97789.41;;;20.33;74.86
49311;BME280;35177;45.900;5.946;2023-07-16T06:53:58;97781.75;;;20.71;73.97
49311;BME280;35177;45.900;5.946;2023-07-16T06:56:24;97780.50;;;20.58;73.27
49311;BME280;35177;45.900;5.946;2023-07-16T06:58:51;97775.44;;;20.29;72.68
49311;BME280;35177;45.900;5.946;2023-07-16T07:01:18;97780.88;;;20.20;73.06
49311;BME280;35177;45.900;5.946;2023-07-16T07:03:45;97772.91;;;20.28;72.09
49311;BME280;35177;45.900;5.946;2023-07-16T07:06:10;97769.16;;;20.03;72.47
49311;BME280;35177;45.900;5.946;2023-07-16T07:08:36;97766.00;;;20.07;70.93
49311;BME280;35177;45.900;5.946;2023-07-16T07:11:02;97760.00;;;20.14;73.48
49311;BME280;35177;45.900;5.946;2023-07-16T07:13:27;97760.00;;;20.14;74.27
49311;BME280;35177;45.900;5.946;2023-07-16T07:15:55;97756.47;;;20.13;71.36
49311;BME280;35177;45.900;5.946;2023-07-16T07:18:20;97757.78;;;20.27;70.71
49311;BME280;35177;45.900;5.946;2023-07-16T07:20:46;97754.94;;;20.10;75.95
49311;BME280;35177;45.900;5.946;2023-07-16T07:23:13;97761.38;;;20.18;75.00
49311;BME280;35177;45.900;5.946;2023-07-16T07:25:40;97764.47;;;20.23;74.66
49311;BME280;35177;45.900;5.946;2023-07-16T07:28:06;97766.88;;;20.26;72.13
49311;BME280;35177;45.900;5.946;2023-07-16T07:30:32;97769.78;;;19.97;73.36
49311;BME280;35177;45.900;5.946;2023-07-16T07:32:58;97772.06;;;20.27;74.10
49311;BME280;35177;45.900;5.946;2023-07-16T07:35:24;97773.22;;;20.50;72.82
49311;BME280;35177;45.900;5.946;2023-07-16T07:37:49;97768.06;;;20.57;72.44
49311;BME280;35177;45.900;5.946;2023-07-16T07:40:15;97772.09;;;20.61;69.86
49311;BME280;35177;45.900;5.946;2023-07-16T07:42:41;97779.09;;;20.79;68.95
49311;BME280;35177;45.900;5.946;2023-07-16T07:45:07;97776.66;;;20.94;66.39
49311;BME280;35177;45.900;5.946;2023-07-16T07:47:33;97774.34;;;20.99;67.17
49311;BME280;35177;45.900;5.946;2023-07-16T07:49:58;97766.66;;;20.78;69.03
49311;BME280;35177;45.900;5.946;2023-07-16T07:52:23;97767.59;;;20.95;69.15
49311;BME280;35177;45.900;5.946;2023-07-16T07:54:49;97770.22;;;20.87;67.01
49311;BME280;35177;45.900;5.946;2023-07-16T07:57:15;97772.25;;;20.85;66.68
49311;BME280;35177;45.900;5.946;2023-07-16T07:59:41;97763.81;;;20.80;68.79
49311;BME280;35177;45.900;5.946;2023-07-16T08:02:06;97762.53;;;20.92;66.25
49311;BME280;35177;45.900;5.946;2023-07-16T08:04:31;97771.44;;;20.93;67.45
49311;BME280;35177;45.900;5.946;2023-07-16T08:06:57;97764.56;;;20.98;66.39
49311;BME280;35177;45.900;5.946;2023-07-16T08:09:25;97766.31;;;21.07;67.46
49311;BME280;35177;45.900;5.946;2023-07-16T08:11:50;97767.34;;;21.14;65.16
49311;BME280;35177;45.900;5.946;2023-07-16T08:14:16;97772.41;;;21.17;66.66
49311;BME280;35177;45.900;5.946;2023-07-16T08:16:41;97772.28;;;21.27;66.87
49311;BME280;35177;45.900;5.946;2023-07-16T08:19:06;97771.44;;;21.26;65.22
49311;BME280;35177;45.900;5.946;2023-07-16T08:21:32;97762.91;;;21.47;64.58
49311;BME280;35177;45.900;5.946;2023-07-16T08:23:58;97768.78;;;21.34;64.28
49311;BME280;35177;45.900;5.946;2023-07-16T08:26:23;97761.38;;;21.36;63.56
49311;BME280;35177;45.900;5.946;2023-07-16T08:28:49;97759.72;;;21.52;65.70
49311;BME280;35177;45.900;5.946;2023-07-16T08:31:14;97755.38;;;21.75;64.06
49311;BME280;35177;45.900;5.946;2023-07-16T08:33:40;97757.00;;;21.52;63.41
49311;BME280;35177;45.900;5.946;2023-07-16T08:36:05;97751.84;;;21.66;63.06
49311;BME280;35177;45.900;5.946;2023-07-16T08:38:31;97748.69;;;21.87;63.97
49311;BME280;35177;45.900;5.946;2023-07-16T08:40:56;97750.88;;;21.91;61.92
49311;BME280;35177;45.900;5.946;2023-07-16T08:43:22;97760.81;;;21.99;62.23
49311;BME280;35177;45.900;5.946;2023-07-16T08:45:49;97754.44;;;22.00;60.29
49311;BME280;35177;45.900;5.946;2023-07-16T08:48:16;97759.97;;;22.06;61.03
49311;BME280;35177;45.900;5.946;2023-07-16T08:50:42;97756.78;;;22.11;61.09
49311;BME280;35177;45.900;5.946;2023-07-16T08:53:07;97748.69;;;22.03;62.56
49311;BME280;35177;45.900;5.946;2023-07-16T08:55:34;97758.44;;;22.12;60.22
49311;BME280;35177;45.900;5.946;2023-07-16T08:58:04;97757.78;;;22.18;62.48
49311;BME280;35177;45.900;5.946;2023-07-16T09:00:30;97762.81;;;22.21;61.43
49311;BME280;35177;45.900;5.946;2023-07-16T09:02:57;97760.97;;;22.22;59.68
49311;BME280;35177;45.900;5.946;2023-07-16T09:05:23;97767.53;;;22.27;60.75
49311;BME280;35177;45.900;5.946;2023-07-16T09:07:49;97752.72;;;22.15;60.45
49311;BME280;35177;45.900;5.946;2023-07-16T09:10:18;97759.59;;;22.34;61.13
49311;BME280;35177;45.900;5.946;2023-07-16T09:12:46;97758.44;;;22.28;59.92
49311;BME280;35177;45.900;5.946;2023-07-16T09:15:18;97759.09;;;22.38;59.54
49311;BME280;35177;45.900;5.946;2023-07-16T09:17:48;97758.41;;;22.44;60.39
49311;BME280;35177;45.900;5.946;2023-07-16T09:20:17;97761.78;;;22.62;58.62
49311;BME280;35177;45.900;5.946;2023-07-16T09:22:44;97753.19;;;22.67;57.93
49311;BME280;35177;45.900;5.946;2023-07-16T09:25:09;97744.91;;;22.76;56.95
49311;BME280;35177;45.900;5.946;2023-07-16T09:27:35;97747.66;;;22.99;56.42
49311;BME280;35177;45.900;5.946;2023-07-16T09:30:03;97751.50;;;23.05;58.24
49311;BME280;35177;45.900;5.946;2023-07-16T09:32:38;97743.63;;;23.34;58.27
49311;BME280;35177;45.900;5.946;2023-07-16T09:35:15;97745.38;;;23.19;57.20
49311;BME280;35177;45.900;5.946;2023-07-16T09:37:43;97747.09;;;23.12;58.73
49311;BME280;35177;45.900;5.946;2023-07-16T09:40:12;97744.69;;;23.17;57.94
49311;BME280;35177;45.900;5.946;2023-07-16T09:42:41;97740.78;;;22.89;57.03
49311;BME280;35177;45.900;5.946;2023-07-16T09:45:08;97740.09;;;22.95;56.46
49311;BME280;35177;45.900;5.946;2023-07-16T09:47:37;97733.91;;;23.17;54.30
49311;BME280;35177;45.900;5.946;2023-07-16T09:50:03;97734.03;;;23.23;57.08
49311;BME280;35177;45.900;5.946;2023-07-16T09:52:31;97729.59;;;23.38;56.11
49311;BME280;35177;45.900;5.946;2023-07-16T09:55:01;97730.88;;;23.96;53.71
49311;BME280;35177;45.900;5.946;2023-07-16T09:57:28;97725.22;;;24.28;53.30
49311;BME280;35177;45.900;5.946;2023-07-16T09:59:57;97719.59;;;24.15;51.71
49311;BME280;35177;45.900;5.946;2023-07-16T10:02:24;97725.34;;;24.35;50.37
49311;BME280;35177;45.900;5.946;2023-07-16T10:04:49;97726.22;;;24.79;49.82
49311;BME280;35177;45.900;5.946;2023-07-16T10:07:24;97722.00;;;24.91;48.95
49311;BME280;35177;45.900;5.946;2023-07-16T10:09:53;97724.22;;;24.58;51.04
49311;BME280;35177;45.900;5.946;2023-07-16T10:12:21;97717.03;;;24.65;49.47
49311;BME280;35177;45.900;5.946;2023-07-16T10:14:48;97725.84;;;24.82;51.97
49311;BME280;35177;45.900;5.946;2023-07-16T10:17:21;97712.91;;;25.64;49.08
49311;BME280;35177;45.900;5.946;2023-07-16T10:22:39;97717.38;;;25.50;48.29
49311;BME280;35177;45.900;5.946;2023-07-16T10:25:26;97715.38;;;25.80;47.37
49311;BME280;35177;45.900;5.946;2023-07-16T10:27:53;97710.50;;;26.11;46.53
49311;BME280;35177;45.900;5.946;2023-07-16T10:30:20;97711.00;;;25.43;48.57
49311;BME280;35177;45.900;5.946;2023-07-16T10:32:45;97713.94;;;25.84;48.73
49311;BME280;35177;45.900;5.946;2023-07-16T10:35:12;97704.56;;;26.07;48.26
49311;BME280;35177;45.900;5.946;2023-07-16T10:37:38;97703.88;;;25.57;46.56
49311;BME280;35177;45.900;5.946;2023-07-16T10:40:05;97705.69;;;25.92;46.97
49311;BME280;35177;45.900;5.946;2023-07-16T10:42:32;97692.50;;;26.31;43.41
49311;BME280;35177;45.900;5.946;2023-07-16T10:44:59;97695.44;;;26.36;44.89
49311;BME280;35177;45.900;5.946;2023-07-16T10:47:31;97694.63;;;26.70;43.45
49311;BME280;35177;45.900;5.946;2023-07-16T10:49:57;97696.38;;;26.77;41.77
49311;BME280;35177;45.900;5.946;2023-07-16T10:52:24;97691.44;;;26.94;41.41
49311;BME280;35177;45.900;5.946;2023-07-16T10:54:50;97687.59;;;26.75;41.86
49311;BME280;35177;45.900;5.946;2023-07-16T10:57:19;97675.28;;;26.79;42.05
49311;BME280;35177;45.900;5.946;2023-07-16T10:59:45;97682.34;;;27.15;41.98
49311;BME280;35177;45.900;5.946;2023-07-16T11:02:13;97674.56;;;27.05;41.92
49311;BME280;35177;45.900;5.946;2023-07-16T11:04:39;97679.81;;;26.72;43.42
49311;BME280;35177;45.900;5.946;2023-07-16T11:07:10;97679.59;;;27.08;44.65
49311;BME280;35177;45.900;5.946;2023-07-16T11:09:44;97672.31;;;27.09;43.06
49311;BME280;35177;45.900;5.946;2023-07-16T11:12:14;97670.09;;;26.01;44.99
49311;BME280;35177;45.900;5.946;2023-07-16T11:14:45;97671.50;;;27.28;43.53
49311;BME280;35177;45.900;5.946;2023-07-16T11:17:11;97665.34;;;27.60;44.20
49311;BME280;35177;45.900;5.946;2023-07-16T11:19:37;97669.25;;;27.31;43.96
49311;BME280;35177;45.900;5.946;2023-07-16T11:22:04;97660.97;;;27.59;43.64
49311;BME280;35177;45.900;5.946;2023-07-16T11:24:56;97646.16;;;28.07;41.11
49311;BME280;35177;45.900;5.946;2023-07-16T11:27:31;97643.22;;;28.09;41.64
49311;BME280;35177;45.900;5.946;2023-07-16T11:29:58;97644.47;;;27.87;41.23
49311;BME280;35177;45.900;5.946;2023-07-16T11:35:00;97647.44;;;28.18;41.94
49311;BME280;35177;45.900;5.946;2023-07-16T11:37:26;97643.66;;;28.19;44.41
49311;BME280;35177;45.900;5.946;2023-07-16T11:40:00;97641.09;;;28.44;41.51
49311;BME280;35177;45.900;5.946;2023-07-16T11:42:30;97632.31;;;28.42;39.31
49311;BME280;35177;45.900;5.946;2023-07-16T11:44:56;97631.03;;;28.51;38.91
49311;BME280;35177;45.900;5.946;2023-07-16T11:47:22;97630.19;;;28.44;40.85
49311;BME280;35177;45.900;5.946;2023-07-16T11:49:48;97631.47;;;28.61;39.74
49311;BME280;35177;45.900;5.946;2023-07-16T11:52:14;97625.03;;;28.23;40.88
49311;BME280;35177;45.900;5.946;2023-07-16T11:54:40;97626.91;;;27.89;44.89
49311;BME280;35177;45.900;5.946;2023-07-16T11:57:06;97621.47;;;28.22;41.72
49311;BME280;35177;45.900;5.946;2023-07-16T11:59:31;97618.59;;;28.87;41.54
49311;BME280;35177;45.900;5.946;2023-07-16T12:01:57;97613.28;;;29.06;40.59
49311;BME280;35177;45.900;5.946;2023-07-16T12:04:22;97619.28;;;29.21;43.66
49311;BME280;35177;45.900;5.946;2023-07-16T12:06:48;97614.53;;;29.03;41.88
49311;BME280;35177;45.900;5.946;2023-07-16T12:09:13;97603.88;;;28.25;41.27
49311;BME280;35177;45.900;5.946;2023-07-16T12:11:39;97606.81;;;27.97;42.97
49311;BME280;35177;45.900;5.946;2023-07-16T12:14:05;97607.63;;;28.30;41.08
49311;BME280;35177;45.900;5.946;2023-07-16T12:16:31;97615.13;;;28.61;41.05
49311;BME280;35177;45.900;5.946;2023-07-16T12:18:56;97611.06;;;28.76;38.91
49311;BME280;35177;45.900;5.946;2023-07-16T12:21:22;97607.09;;;28.79;38.98
49311;BME280;35177;45.900;5.946;2023-07-16T12:23:48;97602.56;;;29.04;39.60
49311;BME280;35177;45.900;5.946;2023-07-16T12:26:13;97603.22;;;29.06;39.13
49311;BME280;35177;45.900;5.946;2023-07-16T12:28:39;97601.91;;;29.15;41.05
49311;BME280;35177;45.900;5.946;2023-07-16T12:31:05;97602.59;;;28.98;40.14
49311;BME280;35177;45.900;5.946;2023-07-16T12:33:30;97588.88;;;29.17;41.37
49311;BME280;35177;45.900;5.946;2023-07-16T12:35:56;97590.47;;;28.94;39.85
49311;BME280;35177;45.900;5.946;2023-07-16T12:38:21;97597.41;;;28.12;41.06
49311;BME280;35177;45.900;5.946;2023-07-16T12:40:48;97597.81;;;28.93;39.75
49311;BME280;35177;45.900;5.946;2023-07-16T12:43:13;97595.47;;;28.46;41.01
49311;BME280;35177;45.900;5.946;2023-07-16T12:45:39;97598.03;;;28.08;39.90
49311;BME280;35177;45.900;5.946;2023-07-16T12:48:04;97598.34;;;28.64;38.53
49311;BME280;35177;45.900;5.946;2023-07-16T12:50:30;97591.19;;;28.76;39.11
49311;BME280;35177;45.900;5.946;2023-07-16T12:52:55;97587.00;;;29.24;37.55
49311;BME280;35177;45.900;5.946;2023-07-16T12:55:21;97594.53;;;28.78;39.00
49311;BME280;35177;45.900;5.946;2023-07-16T12:57:46;97585.78;;;29.07;39.65
49311;BME280;35177;45.900;5.946;2023-07-16T13:00:12;97586.97;;;28.80;37.96
49311;BME280;35177;45.900;5.946;2023-07-16T13:02:38;97584.41;;;28.92;38.07
49311;BME280;35177;45.900;5.946;2023-07-16T13:05:04;97584.94;;;28.69;38.41
49311;BME280;35177;45.900;5.946;2023-07-16T13:07:30;97583.91;;;28.44;39.47
49311;BME280;35177;45.900;5.946;2023-07-16T13:09:57;97576.66;;;29.33;40.43
49311;BME280;35177;45.900;5.946;2023-07-16T13:12:24;97582.59;;;29.23;37.34